Time;durP1;ratioP1;P1;durP2;ratioP2;P2;SDS_P1;SDS_P2;PMS_P1;PMS_P2;Temp;Humidity;BMP_temperature;BMP_pressure;BME280_temperature;BME280_humidity;BME280_pressure;Samples;Min_cycle;Max_cycle;Signal;HPM_P1;HPM_P2
2022/12/15 00:41:05;;;;;;;36.20;33.13;;;;;;;-4.94;100.00;100184.00;5094051;28;20445;-52
2022/12/15 00:43:34;;;;;;;35.30;31.80;;;;;;;-4.92;100.00;100174.31;5093857;28;20421;-50
2022/12/15 00:48:50;;;;;;;34.10;31.30;;;;;;;-4.95;100.00;100166.72;5093533;28;20523;-48
2022/12/15 00:51:18;;;;;;;36.10;33.13;;;;;;;-4.99;100.00;100167.91;5093931;28;20434;-46
2022/12/15 01:21:23;;;;;;;33.77;30.83;;;;;;;-5.27;100.00;100177.69;5095344;28;20429;-52
2022/12/15 01:23:52;;;;;;;35.10;31.50;;;;;;;-5.25;100.00;100180.19;5092979;28;20797;-51
2022/12/15 01:26:20;;;;;;;36.97;33.60;;;;;;;-5.22;100.00;100169.56;5093100;28;20845;-51
2022/12/15 01:28:48;;;;;;;35.37;32.13;;;;;;;-5.17;100.00;100173.50;5093420;28;20449;-48
2022/12/15 01:31:15;;;;;;;34.77;31.97;;;;;;;-5.08;100.00;100165.03;5093395;28;20433;-48
2022/12/15 01:33:43;;;;;;;36.60;33.00;;;;;;;-4.97;100.00;100163.41;5093484;28;20430;-47
2022/12/15 01:36:11;;;;;;;36.30;32.97;;;;;;;-4.87;100.00;100159.22;5092558;28;20457;-47
2022/12/15 01:38:40;;;;;;;35.27;32.17;;;;;;;-4.76;100.00;100170.47;5092900;28;20860;-50
2022/12/15 01:41:09;;;;;;;35.37;32.37;;;;;;;-4.69;100.00;100169.06;5093247;28;20442;-49
2022/12/15 01:43:39;;;;;;;34.10;31.23;;;;;;;-4.62;100.00;100159.88;5093184;28;20430;-48
2022/12/15 01:46:09;;;;;;;35.10;32.30;;;;;;;-4.52;100.00;100170.44;5092287;28;20489;-48
2022/12/15 01:48:41;;;;;;;35.40;32.37;;;;;;;-4.42;100.00;100166.16;5092816;28;20433;-47
2022/12/15 01:51:14;;;;;;;34.40;31.67;;;;;;;-4.32;100.00;100163.72;5092860;28;20480;-47
2022/12/15 01:53:50;;;;;;;35.87;32.60;;;;;;;-4.22;100.00;100178.53;5092724;28;20831;-49
2022/12/15 01:56:20;;;;;;;35.47;32.17;;;;;;;-4.12;100.00;100174.25;5091847;28;20472;-49
2022/12/15 01:58:51;;;;;;;35.63;32.60;;;;;;;-4.01;100.00;100173.47;5092293;28;20459;-47
2022/12/15 02:01:18;;;;;;;37.23;33.87;;;;;;;-3.93;100.00;100179.72;5092569;28;20438;-48
2022/12/15 02:03:47;;;;;;;38.03;35.07;;;;;;;-3.85;100.00;100183.53;5092198;28;20537;-50
2022/12/15 02:06:16;;;;;;;38.23;35.10;;;;;;;-3.78;100.00;100180.31;5091560;28;20480;-50
2022/12/15 02:08:47;;;;;;;36.50;33.57;;;;;;;-3.71;100.00;100178.06;5092338;28;20458;-50
2022/12/15 02:11:46;;;;;;;33.83;31.20;;;;;;;-3.64;100.00;100182.66;5092282;28;20452;-47
2022/12/15 02:14:24;;;;;;;35.50;32.30;;;;;;;-3.56;100.00;100195.13;5092100;28;20442;-47
2022/12/15 02:17:04;;;;;;;36.43;33.67;;;;;;;-3.48;100.00;100179.69;5091619;28;20468;-49
2022/12/15 02:20:08;;;;;;;40.00;36.57;;;;;;;-3.41;100.00;100178.28;5108884;28;21709;-48
2022/12/15 02:23:00;;;;;;;36.23;33.00;;;;;;;-3.36;100.00;100171.72;5090364;28;20463;-47
2022/12/15 02:25:54;;;;;;;35.83;32.53;;;;;;;-3.30;100.00;100174.78;5091535;28;20504;-46
2022/12/15 02:28:39;;;;;;;36.80;33.90;;;;;;;-3.29;100.00;100179.91;5092044;28;20429;-48
2022/12/15 02:34:06;;;;;;;35.93;33.13;;;;;;;-3.30;100.00;100188.66;5092221;28;20754;-47
2022/12/15 02:36:38;;;;;;;36.73;33.50;;;;;;;-3.29;100.00;100195.53;5091238;28;20461;-46
2022/12/15 02:39:06;;;;;;;36.70;33.30;;;;;;;-3.32;100.00;100187.97;5091630;28;20445;-46
2022/12/15 02:41:39;;;;;;;38.17;35.00;;;;;;;-3.41;100.00;100186.91;5091800;28;20952;-46
2022/12/15 02:44:11;;;;;;;34.87;32.40;;;;;;;-3.47;100.00;100183.97;5091880;28;20900;-46
2022/12/15 02:46:54;;;;;;;35.13;32.37;;;;;;;-3.56;100.00;100182.09;5091147;28;20472;-48
2022/12/15 02:49:35;;;;;;;33.37;30.60;;;;;;;-3.70;100.00;100193.56;5091517;28;20548;-48
2022/12/15 02:52:13;;;;;;;34.13;31.53;;;;;;;-3.83;100.00;100192.03;5091664;28;20444;-49
2022/12/15 02:54:57;;;;;;;33.53;30.80;;;;;;;-3.95;100.00;100192.06;5105646;27;20416;-48
2022/12/15 02:57:34;;;;;;;35.03;31.90;;;;;;;-3.97;100.00;100200.91;5114679;28;20432;-48
2022/12/15 03:00:05;;;;;;;32.70;30.30;;;;;;;-3.94;100.00;100198.91;5116181;28;20444;-50
2022/12/15 03:02:37;;;;;;;34.07;30.97;;;;;;;-3.87;100.00;100203.63;5116211;28;20937;-47
2022/12/15 03:05:06;;;;;;;35.20;32.13;;;;;;;-3.81;100.00;100204.00;5115545;27;20507;-47
2022/12/15 03:07:34;;;;;;;37.47;34.40;;;;;;;-3.73;100.00;100200.81;5113361;28;20460;-50
2022/12/15 03:10:05;;;;;;;37.13;34.17;;;;;;;-3.66;100.00;100209.78;5110861;28;20445;-51
2022/12/15 03:12:33;;;;;;;36.47;33.23;;;;;;;-3.58;100.00;100200.44;5096184;28;20413;-48
2022/12/15 03:15:00;;;;;;;38.40;34.57;;;;;;;-3.50;100.00;100202.44;5095108;28;20449;-49
2022/12/15 03:17:28;;;;;;;37.73;34.27;;;;;;;-3.42;100.00;100202.66;5100114;28;20428;-48
2022/12/15 03:19:57;;;;;;;40.00;36.30;;;;;;;-3.32;100.00;100202.78;5109577;28;20456;-46
2022/12/15 03:22:25;;;;;;;40.43;36.27;;;;;;;-3.25;100.00;100202.16;5095440;28;20429;-48
2022/12/15 03:24:52;;;;;;;40.30;36.80;;;;;;;-3.17;100.00;100205.00;5094493;28;20440;-48
2022/12/15 03:27:20;;;;;;;42.67;38.67;;;;;;;-3.11;100.00;100199.31;5095516;28;20869;-49
2022/12/15 03:29:48;;;;;;;43.13;39.20;;;;;;;-3.07;100.00;100208.50;5095472;28;20448;-51
2022/12/15 03:32:15;;;;;;;44.83;40.53;;;;;;;-3.06;100.00;100212.78;5095407;28;20437;-49
2022/12/15 03:34:44;;;;;;;42.27;38.30;;;;;;;-3.05;100.00;100219.69;5094563;28;20429;-45
2022/12/15 03:37:13;;;;;;;42.10;38.10;;;;;;;-3.08;100.00;100214.69;5095226;28;20430;-46
2022/12/15 03:39:40;;;;;;;43.00;38.70;;;;;;;-3.13;100.00;100208.16;5094950;28;20487;-46
2022/12/15 03:42:08;;;;;;;42.90;38.70;;;;;;;-3.23;100.00;100207.25;5095088;28;20443;-46
2022/12/15 03:44:35;;;;;;;41.97;37.70;;;;;;;-3.33;100.00;100199.34;5095070;28;20540;-48
2022/12/15 03:47:03;;;;;;;43.47;37.23;;;;;;;-3.43;100.00;100208.81;5094414;28;20477;-52
2022/12/15 03:49:31;;;;;;;39.07;35.57;;;;;;;-3.56;100.00;100213.34;5094773;28;20506;-50
2022/12/15 03:51:58;;;;;;;39.23;35.60;;;;;;;-3.67;100.00;100219.38;5094920;28;20778;-49
2022/12/15 03:54:27;;;;;;;40.33;36.17;;;;;;;-3.79;100.00;100216.91;5095096;28;20436;-46
2022/12/15 03:56:55;;;;;;;38.63;34.93;;;;;;;-3.88;100.00;100212.41;5094171;28;20459;-49
2022/12/15 03:59:22;;;;;;;35.93;33.03;;;;;;;-3.99;100.00;100214.06;5094809;28;20467;-47
2022/12/15 04:01:50;;;;;;;38.83;35.53;;;;;;;-4.09;100.00;100207.88;5094818;28;20433;-48
2022/12/15 04:04:18;;;;;;;37.23;34.03;;;;;;;-4.18;100.00;100211.19;5094621;28;20436;-51
2022/12/15 04:06:45;;;;;;;37.83;34.67;;;;;;;-4.24;100.00;100205.63;5093835;28;20488;-46
2022/12/15 04:09:13;;;;;;;36.83;33.90;;;;;;;-4.32;100.00;100205.34;5094477;28;20456;-45
2022/12/15 04:11:43;;;;;;;38.53;35.00;;;;;;;-4.40;100.00;100203.34;5094708;28;20835;-50
2022/12/15 04:14:10;;;;;;;36.30;33.10;;;;;;;-4.48;100.00;100214.31;5094566;28;20798;-48
2022/12/15 04:16:38;;;;;;;40.40;36.53;;;;;;;-4.58;100.00;100212.50;5093658;28;20461;-47
2022/12/15 04:21:51;;;;;;;36.17;32.43;;;;;;;-4.77;100.00;100209.59;5094539;28;20448;-52
2022/12/15 05:33:25;;;;;;;41.93;37.70;;;;;;;-6.15;100.00;100278.31;5093052;28;20433;-46
2022/12/15 05:35:56;;;;;;;40.03;36.43;;;;;;;-6.17;100.00;100278.41;5092260;28;20486;-47
2022/12/15 05:38:23;;;;;;;40.20;36.77;;;;;;;-6.15;100.00;100291.31;5092829;28;20429;-45
2022/12/15 05:40:51;;;;;;;41.77;37.67;;;;;;;-6.14;100.00;100293.78;5092956;28;20435;-46
2022/12/15 05:43:18;;;;;;;40.40;36.70;;;;;;;-6.15;100.00;100289.50;5092697;28;20430;-47
2022/12/15 05:45:52;;;;;;;42.13;37.83;;;;;;;-6.13;100.00;100294.63;5091980;28;20537;-48
2022/12/15 05:48:20;;;;;;;39.97;36.37;;;;;;;-6.11;100.00;100297.94;5092562;28;20959;-48
2022/12/15 05:50:49;;;;;;;41.30;37.50;;;;;;;-6.11;100.00;100305.72;5092407;28;20454;-49
2022/12/15 05:53:17;;;;;;;41.37;37.47;;;;;;;-6.11;100.00;100306.56;5092780;28;20438;-46
2022/12/15 05:55:44;;;;;;;40.67;37.20;;;;;;;-6.11;100.00;100319.53;5091949;28;20457;-47
2022/12/15 05:58:12;;;;;;;40.07;36.60;;;;;;;-6.11;100.00;100316.09;5092608;28;20426;-50
2022/12/15 06:00:40;;;;;;;40.60;36.70;;;;;;;-6.12;100.00;100319.66;5092355;28;20857;-45
2022/12/15 06:03:07;;;;;;;39.60;36.10;;;;;;;-6.15;100.00;100320.66;5092354;28;20430;-45
2022/12/15 06:05:35;;;;;;;36.27;33.37;;;;;;;-6.17;100.00;100332.91;5091645;28;20461;-46
2022/12/15 06:08:04;;;;;;;38.10;34.80;;;;;;;-6.19;100.00;100338.22;5092195;28;20469;-47
2022/12/15 06:10:32;;;;;;;39.23;35.97;;;;;;;-6.20;100.00;100340.88;5092554;28;20459;-45
2022/12/15 06:13:00;;;;;;;39.07;35.67;;;;;;;-6.23;100.00;100341.94;5092193;28;20433;-48
2022/12/15 06:15:28;;;;;;;39.27;35.57;;;;;;;-6.32;100.00;100345.13;5091521;28;20812;-45
2022/12/15 06:17:55;;;;;;;40.33;36.43;;;;;;;-6.39;100.00;100345.63;5100345;28;20511;-48
2022/12/15 06:20:23;;;;;;;39.40;35.67;;;;;;;-6.45;100.00;100349.44;5102264;28;20460;-46
2022/12/15 06:22:51;;;;;;;37.53;33.83;;;;;;;-6.49;100.00;100354.91;5092131;28;20430;-49
2022/12/15 06:25:20;;;;;;;38.27;34.80;;;;;;;-6.52;100.00;100355.97;5091430;28;20847;-46
2022/12/15 06:27:47;;;;;;;40.77;36.40;;;;;;;-6.53;100.00;100354.28;5092011;28;20468;-49
2022/12/15 06:30:15;;;;;;;40.23;35.93;;;;;;;-6.49;100.00;100354.91;5091705;28;20457;-51
2022/12/15 06:32:42;;;;;;;40.00;36.50;;;;;;;-6.44;100.00;100352.84;5091653;28;20455;-48
2022/12/15 06:35:10;;;;;;;40.90;37.30;;;;;;;-6.36;100.00;100348.84;5091398;28;20465;-50
2022/12/15 06:37:38;;;;;;;42.10;38.00;;;;;;;-6.26;100.00;100351.66;5091989;28;20425;-50
2022/12/15 06:40:07;;;;;;;43.97;40.00;;;;;;;-6.15;100.00;100351.00;5091773;28;20456;-46
2022/12/15 06:42:36;;;;;;;42.70;38.60;;;;;;;-6.03;100.00;100360.56;5091928;28;20432;-45
2022/12/15 06:45:04;;;;;;;40.20;36.33;;;;;;;-5.92;100.00;100365.88;5090996;28;20460;-50
2022/12/15 06:47:31;;;;;;;42.70;38.60;;;;;;;-5.81;100.00;100381.53;5091956;28;20473;-49
2022/12/15 06:49:59;;;;;;;44.43;40.33;;;;;;;-5.69;100.00;100380.72;5091592;28;20556;-46
2022/12/15 06:52:27;;;;;;;43.80;40.23;;;;;;;-5.60;100.00;100383.53;5091760;28;20429;-47
2022/12/15 06:54:54;;;;;;;44.00;40.20;;;;;;;-5.48;100.00;100387.06;5091128;28;20425;-48
2022/12/15 06:57:22;;;;;;;44.97;40.67;;;;;;;-5.34;100.00;100386.97;5091646;28;20425;-48
2022/12/15 06:59:51;;;;;;;43.03;39.20;;;;;;;-5.24;100.00;100390.59;5091774;28;20445;-47
2022/12/15 07:02:18;;;;;;;46.40;40.93;;;;;;;-5.14;100.00;100396.81;5091816;28;20436;-46
2022/12/15 07:04:55;;;;;;;44.30;40.17;;;;;;;-5.06;100.00;100398.91;5091079;28;20463;-45
2022/12/15 07:07:22;;;;;;;44.33;40.33;;;;;;;-5.00;100.00;100403.69;5091496;28;20506;-48
2022/12/15 07:09:50;;;;;;;41.27;37.80;;;;;;;-4.97;100.00;100400.03;5091375;28;20540;-47
2022/12/15 07:12:18;;;;;;;42.30;38.47;;;;;;;-4.96;100.00;100405.16;5091711;28;20460;-47
2022/12/15 07:14:45;;;;;;;43.50;39.60;;;;;;;-4.94;100.00;100408.47;5090883;28;20429;-48
2022/12/15 07:17:21;;;;;;;43.13;39.00;;;;;;;-4.86;100.00;100405.31;5094988;28;20424;-45
2022/12/15 07:19:48;;;;;;;42.23;38.60;;;;;;;-4.84;100.00;100408.66;5106667;28;20816;-47
2022/12/15 07:22:16;;;;;;;40.57;37.07;;;;;;;-4.77;100.00;100407.28;5091486;28;20436;-48
2022/12/15 07:24:44;;;;;;;39.80;36.40;;;;;;;-4.70;100.00;100413.72;5091060;28;20441;-47
2022/12/15 07:27:12;;;;;;;44.67;40.60;;;;;;;-4.66;100.00;100418.59;5091626;28;20469;-50
2022/12/15 07:29:40;;;;;;;46.40;41.87;;;;;;;-4.59;100.00;100429.41;5091686;28;20449;-50
2022/12/15 07:32:07;;;;;;;43.20;39.10;;;;;;;-4.56;100.00;100417.00;5091440;28;20437;-47
2022/12/15 07:34:36;;;;;;;42.87;39.20;;;;;;;-4.50;100.00;100428.75;5091264;28;20430;-46
2022/12/15 07:37:04;;;;;;;43.50;39.00;;;;;;;-4.44;100.00;100435.28;5090918;28;20472;-49
2022/12/15 07:39:32;;;;;;;49.30;44.33;;;;;;;-4.40;100.00;100434.13;5091380;28;20453;-46
2022/12/15 07:42:00;;;;;;;44.87;40.57;;;;;;;-4.36;100.00;100449.41;5091667;28;20459;-49
2022/12/15 07:44:28;;;;;;;44.00;40.00;;;;;;;-4.31;100.00;100447.34;5095304;28;20432;-50
2022/12/15 07:46:56;;;;;;;41.63;37.83;;;;;;;-4.24;100.00;100451.16;5094568;28;21105;-46
2022/12/15 07:49:24;;;;;;;43.50;39.43;;;;;;;-4.17;100.00;100455.00;5095071;28;20460;-48
2022/12/15 07:51:57;;;;;;;44.60;40.73;;;;;;;-4.10;100.00;100456.22;5094903;28;20447;-48
2022/12/15 07:54:25;;;;;;;42.40;38.83;;;;;;;-4.02;100.00;100464.31;5094810;28;20429;-47
2022/12/15 07:56:53;;;;;;;43.93;39.70;;;;;;;-4.05;100.00;100467.13;5094167;28;20461;-46
2022/12/15 07:59:20;;;;;;;40.13;36.93;;;;;;;-3.99;100.00;100471.06;5094728;28;20449;-47
2022/12/15 08:01:48;;;;;;;40.47;37.03;;;;;;;-3.95;100.00;100478.56;5094709;28;20952;-47
2022/12/15 08:04:16;;;;;;;42.97;39.37;;;;;;;-3.91;100.00;100469.56;5095095;28;20841;-50
2022/12/15 08:06:43;;;;;;;40.80;37.53;;;;;;;-3.87;100.00;100479.75;5094003;28;20836;-49
2022/12/15 08:09:12;;;;;;;43.30;39.33;;;;;;;-3.81;100.00;100476.72;5094357;28;20534;-50
2022/12/15 08:11:40;;;;;;;41.30;37.67;;;;;;;-3.75;100.00;100476.25;5094655;28;20464;-49
2022/12/15 08:14:07;;;;;;;41.83;38.33;;;;;;;-3.69;100.00;100487.06;5094547;28;20851;-47
2022/12/15 08:16:44;;;;;;;40.37;37.00;;;;;;;-3.65;100.00;100487.69;5093817;28;20465;-50
2022/12/15 08:19:14;;;;;;;41.80;38.00;;;;;;;-3.61;100.00;100483.88;5113691;28;20468;-46
2022/12/15 08:21:42;;;;;;;39.40;36.30;;;;;;;-3.52;100.00;100493.63;5094283;28;20438;-48
2022/12/15 08:24:10;;;;;;;39.57;36.30;;;;;;;-3.42;100.00;100497.25;5094317;28;20994;-48
2022/12/15 08:26:40;;;;;;;40.40;37.07;;;;;;;-3.37;100.00;100498.56;5093628;28;20468;-49
2022/12/15 08:29:11;;;;;;;43.80;39.87;;;;;;;-3.27;100.00;100493.50;5094021;28;20477;-47
2022/12/15 08:31:59;;;;;;;42.00;38.67;;;;;;;-3.23;100.00;100494.94;5094404;28;20474;-49
2022/12/15 08:34:26;;;;;;;44.63;40.30;;;;;;;-3.12;100.00;100504.56;5094209;28;20777;-53
2022/12/15 08:36:54;;;;;;;42.33;38.00;;;;;;;-3.02;100.00;100490.72;5093448;28;20460;-48
2022/12/15 08:39:22;;;;;;;45.07;40.70;;;;;;;-2.92;100.00;100496.03;5093887;28;20510;-48
2022/12/15 08:41:51;;;;;;;45.00;40.53;;;;;;;-2.87;100.00;100497.34;5093776;28;20441;-48
2022/12/15 08:44:18;;;;;;;43.27;39.57;;;;;;;-2.80;100.00;100498.56;5093944;28;20994;-50
2022/12/15 08:46:46;;;;;;;44.17;40.63;;;;;;;-2.73;100.00;100504.13;5093584;28;20856;-47
2022/12/15 08:49:13;;;;;;;43.10;39.40;;;;;;;-2.63;100.00;100504.28;5093757;28;20534;-49
2022/12/15 08:51:48;;;;;;;43.03;39.23;;;;;;;-2.55;100.00;100504.50;5093794;28;20451;-49
2022/12/15 08:54:18;;;;;;;43.40;39.70;;;;;;;-2.50;100.00;100508.41;5092844;28;20959;-50
2022/12/15 08:56:45;;;;;;;42.30;38.67;;;;;;;-2.47;100.00;100512.56;5093383;28;20465;-49
2022/12/15 08:59:14;;;;;;;42.10;38.40;;;;;;;-2.47;100.00;100512.56;5094120;28;20449;-50
2022/12/15 09:01:42;;;;;;;44.80;40.57;;;;;;;-2.46;100.00;100509.84;5093598;28;20433;-49
2022/12/15 09:04:10;;;;;;;43.63;39.87;;;;;;;-2.39;100.00;100515.44;5093629;28;20487;-47
2022/12/15 09:06:37;;;;;;;44.13;40.43;;;;;;;-2.39;100.00;100511.00;5092698;28;20526;-51
2022/12/15 09:09:07;;;;;;;43.13;39.47;;;;;;;-2.28;100.00;100516.25;5093497;28;20477;-49
2022/12/15 09:11:35;;;;;;;43.93;40.27;;;;;;;-2.18;100.00;100512.91;5093561;28;20437;-50
2022/12/15 09:14:03;;;;;;;40.83;37.70;;;;;;;-2.07;100.00;100515.50;5093561;28;20565;-48
2022/12/15 09:16:32;;;;;;;42.90;39.23;;;;;;;-2.00;100.00;100512.25;5092652;28;20461;-52
2022/12/15 09:19:00;;;;;;;44.53;41.00;;;;;;;-1.95;100.00;100517.13;5110608;28;20444;-52
2022/12/15 09:21:29;;;;;;;42.40;38.73;;;;;;;-2.10;100.00;100527.03;5094363;28;20433;-51
2022/12/15 09:24:00;;;;;;;43.00;39.57;;;;;;;-2.07;100.00;100526.78;5093333;28;20981;-53
2022/12/15 09:26:29;;;;;;;43.27;39.77;;;;;;;-2.01;100.00;100525.47;5092647;28;20482;-51
2022/12/15 09:28:57;;;;;;;43.63;39.73;;;;;;;-2.01;100.00;100534.13;5092961;28;20477;-51
2022/12/15 09:31:28;;;;;;;43.10;39.37;;;;;;;-1.99;100.00;100537.44;5092929;28;20441;-50
2022/12/15 09:33:58;;;;;;;41.70;38.33;;;;;;;-1.96;100.00;100539.81;5092931;28;20455;-50
2022/12/15 09:36:27;;;;;;;44.63;40.73;;;;;;;-1.85;100.00;100537.16;5092238;28;20472;-49
2022/12/15 09:38:54;;;;;;;40.80;37.37;;;;;;;-1.77;100.00;100529.56;5092838;28;20449;-52
2022/12/15 09:41:25;;;;;;;41.63;38.20;;;;;;;-1.67;100.00;100538.31;5092709;28;20433;-51
2022/12/15 09:43:57;;;;;;;43.57;40.03;;;;;;;-1.65;100.00;100539.97;5092842;28;20475;-50
2022/12/15 09:46:39;;;;;;;41.50;38.10;;;;;;;-1.57;100.00;100546.25;5092059;28;20479;-49
2022/12/15 09:49:13;;;;;;;40.53;36.63;;;;;;;-1.48;100.00;100547.28;5092518;28;20975;-53
2022/12/15 09:51:47;;;;;;;41.33;38.43;;;;;;;-1.48;100.00;100545.50;5092735;28;20483;-51
2022/12/15 09:54:15;;;;;;;43.13;39.67;;;;;;;-1.54;100.00;100545.16;5092757;28;20428;-51
2022/12/15 09:56:49;;;;;;;43.57;39.67;;;;;;;-1.49;100.00;100553.50;5091734;28;20544;-51
2022/12/15 09:59:29;;;;;;;44.33;40.40;;;;;;;-1.42;100.00;100559.88;5092469;28;20446;-50
2022/12/15 10:02:18;;;;;;;47.07;43.03;;;;;;;-1.35;100.00;100548.78;5092519;28;20444;-49
2022/12/15 10:04:56;;;;;;;45.60;41.80;;;;;;;-1.28;100.00;100549.09;5091768;28;20948;-50
2022/12/15 10:07:31;;;;;;;44.00;39.97;;;;;;;-1.16;100.00;100551.53;5092718;28;20488;-51
2022/12/15 10:09:58;;;;;;;42.47;39.03;;;;;;;-1.01;100.00;100552.06;5092220;28;20523;-49
2022/12/15 10:12:32;;;;;;;43.87;39.87;;;;;;;-0.83;100.00;100555.78;5092210;28;20483;-51
2022/12/15 10:15:12;;;;;;;41.97;38.07;;;;;;;-0.68;100.00;100554.47;5091709;28;20452;-50
2022/12/15 10:17:45;;;;;;;46.10;40.60;;;;;;;-0.68;100.00;100558.88;5098337;28;20494;-52
2022/12/15 10:20:20;;;;;;;43.10;39.33;;;;;;;-0.62;100.00;100558.38;5103554;28;21125;-50
2022/12/15 10:22:48;;;;;;;44.70;40.90;;;;;;;-0.61;100.00;100545.16;5092442;28;20406;-52
2022/12/15 10:25:19;;;;;;;47.77;43.40;;;;;;;-0.61;100.00;100547.78;5091487;28;20978;-48
2022/12/15 10:28:16;;;;;;;50.67;43.50;;;;;;;-0.56;100.00;100563.09;5092061;28;20429;-51
2022/12/15 10:30:51;;;;;;;47.40;42.50;;;;;;;-0.56;100.00;100558.69;5092009;28;21004;-47
2022/12/15 10:33:23;;;;;;;48.37;43.13;;;;;;;-0.44;100.00;100563.84;5092084;28;20508;-47
2022/12/15 10:35:53;;;;;;;51.80;46.07;;;;;;;-0.33;100.00;100558.53;5091336;28;20454;-52
2022/12/15 10:38:25;;;;;;;53.73;45.40;;;;;;;-0.21;100.00;100555.66;5091790;28;20426;-53
2022/12/15 10:40:55;;;;;;;46.17;41.57;;;;;;;-0.16;100.00;100555.28;5092018;28;20498;-49
2022/12/15 10:43:30;;;;;;;45.83;41.20;;;;;;;-0.09;100.00;100548.56;5091957;28;20425;-51
2022/12/15 10:46:12;;;;;;;46.37;41.27;;;;;;;-0.09;100.00;100549.38;5091366;28;20548;-49
2022/12/15 10:48:40;;;;;;;48.50;44.10;;;;;;;-0.09;100.00;100554.59;5091542;28;20481;-48
2022/12/15 10:51:18;;;;;;;47.13;42.33;;;;;;;-0.11;100.00;100555.72;5091908;28;20444;-51
2022/12/15 10:53:48;;;;;;;45.93;41.10;;;;;;;-0.10;100.00;100558.22;5091984;28;20486;-51
2022/12/15 10:56:48;;;;;;;46.47;42.27;;;;;;;-0.06;100.00;100558.78;5091270;28;20481;-51
2022/12/15 10:59:25;;;;;;;48.97;40.37;;;;;;;-0.08;100.00;100553.66;5091914;28;20809;-49
2022/12/15 11:01:52;;;;;;;59.60;52.47;;;;;;;-0.04;100.00;100562.09;5091760;28;20454;-48
2022/12/15 11:04:27;;;;;;;50.00;43.80;;;;;;;0.01;100.00;100552.03;5091796;28;20429;-47
2022/12/15 11:07:01;;;;;;;47.70;40.83;;;;;;;-0.02;100.00;100550.50;5090975;28;20467;-50
2022/12/15 11:09:33;;;;;;;45.60;40.90;;;;;;;0.10;100.00;100560.88;5091395;28;20810;-50
2022/12/15 11:14:48;;;;;;;48.60;43.77;;;;;;;0.48;100.00;100548.66;5090802;28;20425;-48
2022/12/15 11:17:19;;;;;;;50.13;45.33;;;;;;;0.71;100.00;100564.16;5095190;28;20429;-49
2022/12/15 11:19:55;;;;;;;42.97;38.73;;;;;;;0.91;100.00;100560.56;5111171;28;20775;-49
2022/12/15 11:22:41;;;;;;;41.00;37.57;;;;;;;0.87;100.00;100548.66;5095699;28;20460;-49
2022/12/15 11:25:20;;;;;;;44.87;40.77;;;;;;;0.93;100.00;100558.59;5095002;28;20461;-48
2022/12/15 11:27:50;;;;;;;45.47;41.83;;;;;;;0.98;100.00;100559.03;5095442;28;20429;-48
2022/12/15 11:30:21;;;;;;;44.33;40.53;;;;;;;1.13;100.00;100562.91;5095149;28;20480;-53
2022/12/15 11:32:52;;;;;;;43.90;39.90;;;;;;;1.19;100.00;100570.22;5095542;28;20429;-47
2022/12/15 11:35:27;;;;;;;44.20;39.77;;;;;;;1.19;100.00;100570.22;5095080;28;20465;-47
2022/12/15 11:38:05;;;;;;;44.70;40.60;;;;;;;1.22;100.00;100572.56;5095311;28;20430;-48
2022/12/15 11:40:39;;;;;;;45.83;41.37;;;;;;;1.10;100.00;100564.00;5095138;28;20452;-50
2022/12/15 11:43:43;;;;;;;43.93;40.40;;;;;;;1.13;100.00;100573.41;5095017;28;20983;-51
2022/12/15 11:46:22;;;;;;;43.73;40.40;;;;;;;1.13;100.00;100575.19;5062002;28;20461;-47
2022/12/15 11:49:19;;;;;;;44.87;41.03;;;;;;;1.05;100.00;100573.25;5094827;28;20476;-49
2022/12/15 11:51:56;;;;;;;43.90;40.57;;;;;;;1.03;100.00;100581.28;5094969;28;20444;-49
2022/12/15 11:54:29;;;;;;;45.03;40.63;;;;;;;1.10;100.00;100573.69;5095188;28;20485;-50
2022/12/15 11:57:07;;;;;;;44.00;40.50;;;;;;;1.13;100.00;100579.44;5094511;28;20465;-49
2022/12/15 12:00:01;;;;;;;43.20;39.50;;;;;;;1.23;100.00;100579.44;5094720;28;20513;-47
2022/12/15 12:02:42;;;;;;;43.33;40.10;;;;;;;1.35;100.00;100582.75;5094793;28;20541;-49
2022/12/15 12:05:26;;;;;;;42.23;39.13;;;;;;;1.38;100.00;100585.91;5094334;28;20513;-51
2022/12/15 12:08:06;;;;;;;44.03;40.53;;;;;;;1.36;100.00;100582.63;5094638;28;20429;-47
2022/12/15 12:10:42;;;;;;;43.70;40.50;;;;;;;1.37;100.00;100586.06;5094836;28;20522;-50
2022/12/15 12:13:22;;;;;;;43.17;39.60;;;;;;;1.31;100.00;100579.59;5094818;28;20433;-52
2022/12/15 12:15:57;;;;;;;43.03;39.63;;;;;;;1.26;100.00;100587.03;5093886;28;20465;-50
2022/12/15 12:18:30;;;;;;;43.47;39.80;;;;;;;1.29;100.00;100584.13;5106869;28;20428;-49
2022/12/15 12:21:05;;;;;;;44.30;40.60;;;;;;;1.32;100.00;100585.66;5100009;28;20451;-48
2022/12/15 12:23:38;;;;;;;45.00;41.23;;;;;;;1.21;100.00;100591.06;5094550;28;20774;-47
2022/12/15 12:26:13;;;;;;;44.33;40.90;;;;;;;1.20;100.00;100595.50;5093782;28;20993;-47
2022/12/15 12:28:46;;;;;;;45.23;41.40;;;;;;;1.16;100.00;100590.66;5093381;28;20454;-49
2022/12/15 12:31:26;;;;;;;45.17;41.63;;;;;;;1.08;100.00;100600.06;5093870;28;20476;-50
2022/12/15 12:33:58;;;;;;;43.67;40.10;;;;;;;0.93;100.00;100590.94;5094460;28;20429;-53
2022/12/15 12:36:26;;;;;;;45.37;41.47;;;;;;;0.85;100.00;100597.84;5093391;28;20465;-51
2022/12/15 12:38:55;;;;;;;44.83;40.70;;;;;;;0.79;100.00;100601.03;5093987;28;20991;-47
2022/12/15 12:41:35;;;;;;;43.27;39.87;;;;;;;0.72;100.00;100602.56;5093903;28;20433;-51
2022/12/15 12:44:11;;;;;;;45.47;41.37;;;;;;;0.69;100.00;100608.09;5093965;28;20432;-50
2022/12/15 12:46:45;;;;;;;44.43;40.80;;;;;;;0.71;100.00;100608.78;5093365;28;20468;-54
2022/12/15 12:49:25;;;;;;;43.57;40.00;;;;;;;0.70;100.00;100599.22;5093678;28;20464;-49
2022/12/15 12:51:57;;;;;;;43.23;39.97;;;;;;;0.72;100.00;100602.56;5094148;28;20498;-51
2022/12/15 12:54:44;;;;;;;45.13;41.03;;;;;;;0.71;100.00;100601.72;5093951;28;20425;-50
2022/12/15 12:57:32;;;;;;;43.70;40.17;;;;;;;0.76;100.00;100604.75;5093615;28;20937;-49
2022/12/15 13:00:02;;;;;;;42.80;39.20;;;;;;;0.83;100.00;100602.44;5093542;28;20457;-47
2022/12/15 13:02:45;;;;;;;45.07;41.40;;;;;;;0.89;100.00;100604.50;5093944;28;20808;-49
2022/12/15 13:05:30;;;;;;;44.43;40.73;;;;;;;0.94;100.00;100602.28;5092999;28;20456;-46
2022/12/15 13:08:39;;;;;;;45.23;41.57;;;;;;;0.99;100.00;100611.41;5093695;28;20483;-50
2022/12/15 13:11:58;;;;;;;44.97;41.20;;;;;;;0.98;100.00;100608.94;5093421;28;20496;-53
2022/12/15 13:14:41;;;;;;;43.23;40.07;;;;;;;1.03;100.00;100615.41;5093218;28;20516;-49
2022/12/15 13:17:15;;;;;;;47.73;43.47;;;;;;;1.07;100.00;100608.94;5095004;28;20437;-49
2022/12/15 13:20:28;;;;;;;45.40;41.70;;;;;;;1.04;100.00;100603.13;5107555;28;20451;-51
2022/12/15 13:23:11;;;;;;;46.03;42.07;;;;;;;1.04;100.00;100616.25;5113542;28;20420;-52
2022/12/15 13:25:41;;;;;;;45.40;41.70;;;;;;;0.95;100.00;100612.66;5112774;27;20509;-50
2022/12/15 13:28:29;;;;;;;42.63;39.37;;;;;;;0.89;100.00;100609.75;5113601;28;20923;-49
2022/12/15 13:31:32;;;;;;;47.67;43.57;;;;;;;0.80;100.00;100614.03;5113382;28;20525;-51
2022/12/15 13:34:27;;;;;;;48.50;43.77;;;;;;;0.74;100.00;100617.22;5113595;28;20942;-49
2022/12/15 13:37:00;;;;;;;48.17;44.07;;;;;;;0.64;100.00;100620.75;5112687;27;20465;-51
2022/12/15 13:39:57;;;;;;;49.73;45.43;;;;;;;0.50;100.00;100619.38;5113130;28;20998;-49
2022/12/15 13:42:31;;;;;;;47.57;43.30;;;;;;;0.46;100.00;100613.56;5107253;28;20936;-51
2022/12/15 13:45:35;;;;;;;47.43;43.43;;;;;;;0.28;100.00;100602.06;5112788;27;20925;-48
2022/12/15 13:48:15;;;;;;;44.53;40.73;;;;;;;0.24;100.00;100611.16;5113085;28;20425;-48
2022/12/15 13:50:48;;;;;;;48.57;44.20;;;;;;;0.21;100.00;100613.22;5112836;28;20476;-46
2022/12/15 13:53:41;;;;;;;46.33;42.17;;;;;;;0.13;100.00;100611.25;5113339;27;20838;-53
2022/12/15 13:56:24;;;;;;;44.70;41.27;;;;;;;0.09;100.00;100616.91;5112141;27;21044;-50
2022/12/15 13:59:01;;;;;;;49.73;45.33;;;;;;;0.06;100.00;100625.03;5113109;28;20498;-48